OLBO2: North Canadian River

Data processed at Sun Sep 25 23:20:34 2016 Central Daylight Time


All information presented herein is the property of the government of the United States of America and may be revised or deleted at any time without prior notice.
Dissemination of this information without the expressed written consent of the Public Affairs Office, Tulsa District U.S. Army Corps of Engineers is strictly prohibited.
These data are gathered electronically and, as presented, have not undergone any form of quality control. These data are not guaranteed to be valid or correct.
Go to home page.
Go to station list.
Go to station map.

Upstream stations:

Downstream station: Previous Day
Next Day
Current Day

Display graphics.
Display DCP transmissions.


    
    SHEF ID:       OLBO2     North Canadian River
    STATION TYPE:  STREAM GAGE
    Regulation Limits:  Stage =   24.00, Flow =   11493
    
                   PRECIP     STAGE  RIV-FLOW  WTR-TEMP   DIS-OXY        PH   CONDUCT  BAT-LOAD
                   INCHES      FEET       CFS     DEG-C      MG/L        PH     US/CM     VOLTS
                     GOES      GOES      GOES      GOES      GOES      GOES      GOES      GOES
       (Cen)
    09/25 01:00      0.13      4.53     16.39     24.57      4.22      ----       897     12.57
    09/25 02:00      0.10      4.56     17.70     24.40      4.16      ----       891     12.57
    09/25 03:00      0.12      4.58     18.60     24.21      4.40      ----       875     12.57
    09/25 04:00      0.09      4.59     19.07     24.06      4.50      ----       878     12.57
    09/25 05:00      0.01      4.58     18.60     23.95      4.47      ----       879     12.49
    09/25 06:00      0.01      4.60     19.54     23.81      4.24      ----       883     12.49
    09/25 07:00      0.00      4.63     21.00     23.72      4.17      ----       892     12.49
    09/25 08:00      0.00      4.64     21.48     23.67      4.15      ----       901     12.49
    09/25 09:00      0.00      4.67     22.95     23.79      4.52      ----       911     12.49
    09/25 10:00      0.00      4.71     25.01     23.85      5.53      ----       915     12.73
    09/25 11:00      0.00      4.70     24.48     24.25      6.27      ----       871     13.13
    09/25 12:00      0.00      4.68     23.45     24.73      6.81      ----       816     13.21
    09/25 13:00      0.01      4.61     20.02     24.67      7.10      ----       804     13.05
    09/25 14:00      0.00      4.58     18.60     24.08      7.11      ----       822     12.89
    09/25 15:00      0.00      4.61     20.02     23.52      7.04      ----       845     12.97
    09/25 16:00      0.00      4.57     18.15     23.11      7.08      ----       869     13.05
    09/25 17:00      0.00      4.59     19.07     22.94      7.16      ----       895     12.89
    09/25 18:00      0.00      4.63     21.00     22.75      6.94      ----       908     12.89
    09/25 19:00      0.00      4.62     20.51     22.58      6.66      ----       909     12.65
    09/25 20:00      0.00      4.61     20.02     22.39      6.10      ----       903     12.65
    09/25 21:00      0.00      4.61     20.02     22.13      5.39      ----       892     12.57
    09/25 22:00      0.00      4.61     20.02     21.97      5.10      ----       878     12.57
    09/25 23:00      0.00      4.60     19.54     21.79      4.72      ----       866     12.57
    09/26 00:00      ----      ----      ----      ----      ----      ----      ----      ----